^^
Meteo Knjazevac Station Historical Data
Daily Summary for November 1, 2021 Units:  English    Metric   Both
Daily Weekly Monthly Yearly Custom
  High: Low: Average:
Temperature: 48.2 °F 31.6 °F 36.3 °F
Dew Point: 46.3 °F 30.4 °F 35.7 °F
Humidity: 99% 93% 98%
Wind Speed: 3mph 0mph 1mph
Wind Gust: 5mph - -
Wind- - SSE
Pressure: 30.14 in 30.04 in -
Precipitation: 0.00 in    
Historical Graphs
 
 
Tabular Data for November 1, 2021
Time Temperature Dew Point Pressure Wind Wind Speed Wind Gust Humidity Rainfall Rate (Hourly) solar Conditions
00:00 34.5 °F 32.7 °F 30.14 in Calm   2 mph 93% 0.00 in 0 W/m2
00:10 34.2 °F 32.3 °F 30.14 in Calm   1 mph 93% 0.00 in 0 W/m2
00:20 33.9 °F 32.1 °F 30.14 in Calm   2 mph 93% 0.00 in 0 W/m2
00:30 33.4 °F 31.6 °F 30.14 in Calm   2 mph 93% 0.00 in 0 W/m2
00:40 33.3 °F 31.7 °F 30.14 in Calm   2 mph 94% 0.00 in 0 W/m2
00:50 32.9 °F 31.4 °F 30.14 in WNW 1 mph 3 mph 94% 0.00 in 0 W/m2
01:00 32.9 °F 31.6 °F 30.14 in Calm   3 mph 95% 0.00 in 0 W/m2
01:10 32.7 °F 31.4 °F 30.14 in Calm   2 mph 95% 0.00 in 0 W/m2
01:20 32.5 °F 31.3 °F 30.13 in Calm   2 mph 95% 0.00 in 0 W/m2
01:30 32.2 °F 30.7 °F 30.13 in Calm   2 mph 94% 0.00 in 0 W/m2
01:40 32.2 °F 30.9 °F 30.13 in NNW 1 mph 2 mph 95% 0.00 in 0 W/m2
01:50 32 °F 30.7 °F 30.13 in Calm   1 mph 95% 0.00 in 0 W/m2
02:00 31.8 °F 30.6 °F 30.13 in Calm   2 mph 95% 0.00 in 0 W/m2
02:10 31.6 °F 30.4 °F 30.12 in Calm   2 mph 95% 0.00 in 0 W/m2
02:20 31.6 °F 30.6 °F 30.12 in Calm   2 mph 96% 0.00 in 0 W/m2
02:30 31.8 °F 30.8 °F 30.12 in NW 1 mph 2 mph 96% 0.00 in 0 W/m2
02:40 31.8 °F 31.3 °F 30.12 in WNW 1 mph 2 mph 98% 0.00 in 0 W/m2
02:50 31.8 °F 31.3 °F 30.12 in West 1 mph 2 mph 98% 0.00 in 0 W/m2
03:00 32 °F 31.5 °F 30.12 in West 2 mph 3 mph 98% 0.00 in 0 W/m2
03:10 32 °F 31.5 °F 30.12 in WNW 2 mph 3 mph 98% 0.00 in 0 W/m2
03:20 32.2 °F 31.9 °F 30.12 in WNW 2 mph 4 mph 99% 0.00 in 0 W/m2
03:30 32.5 °F 32.3 °F 30.11 in WNW 1 mph 3 mph 99% 0.00 in 0 W/m2
03:40 32.9 °F 32.7 °F 30.11 in West 1 mph 2 mph 99% 0.00 in 0 W/m2
03:50 32.9 °F 32.7 °F 30.11 in West 1 mph 2 mph 99% 0.00 in 0 W/m2
04:00 33.1 °F 32.8 °F 30.11 in West 2 mph 4 mph 99% 0.00 in 0 W/m2
04:10 33.4 °F 33.2 °F 30.11 in West 2 mph 4 mph 99% 0.00 in 0 W/m2
04:20 33.6 °F 33.3 °F 30.11 in WSW 2 mph 2 mph 99% 0.00 in 0 W/m2
04:30 33.7 °F 33.5 °F 30.11 in West 1 mph 2 mph 99% 0.00 in 0 W/m2
04:40 33.8 °F 33.5 °F 30.10 in Calm   2 mph 99% 0.00 in 0 W/m2
04:50 34.1 °F 33.9 °F 30.10 in NW 1 mph 2 mph 99% 0.00 in 0 W/m2
05:00 34.3 °F 34.1 °F 30.10 in WNW 2 mph 3 mph 99% 0.00 in 0 W/m2
05:10 34.7 °F 34.4 °F 30.10 in West 2 mph 3 mph 99% 0.00 in 0 W/m2
05:20 34.9 °F 34.6 °F 30.10 in Calm   2 mph 99% 0.00 in 0 W/m2
05:30 35.2 °F 34.9 °F 30.09 in Calm   1 mph 99% 0.00 in 0 W/m2
05:40 35.4 °F 35.2 °F 30.09 in Calm   2 mph 99% 0.00 in 0 W/m2
05:50 35.8 °F 35.5 °F 30.09 in NNE 1 mph 3 mph 99% 0.00 in 0 W/m2
06:00 36 °F 35.7 °F 30.09 in Calm   3 mph 99% 0.00 in 0 W/m2
06:10 36.1 °F 35.9 °F 30.09 in NE 2 mph 4 mph 99% 0.00 in 2 W/m2
06:20 36.3 °F 36 °F 30.10 in NE 3 mph 5 mph 99% 0.00 in 4 W/m2
06:30 36.3 °F 36.1 °F 30.10 in NE 2 mph 4 mph 99% 0.00 in 9 W/m2
06:40 36.3 °F 36.1 °F 30.10 in NE 2 mph 5 mph 99% 0.00 in 12 W/m2
06:50 36.5 °F 36.2 °F 30.09 in NNE 1 mph 3 mph 99% 0.00 in 18 W/m2
07:00 36.7 °F 36.4 °F 30.10 in NE 1 mph 4 mph 99% 0.00 in 24 W/m2
07:10 36.7 °F 36.4 °F 30.10 in NE 2 mph 4 mph 99% 0.00 in 30 W/m2
07:20 36.9 °F 36.6 °F 30.10 in NE 3 mph 5 mph 99% 0.00 in 37 W/m2
07:30 37 °F 36.8 °F 30.10 in NNE 2 mph 4 mph 99% 0.00 in 48 W/m2
07:40 37.2 °F 37 °F 30.10 in NNE 1 mph 4 mph 99% 0.00 in 47 W/m2
07:50 37.4 °F 37.1 °F 30.10 in NNE 1 mph 3 mph 99% 0.00 in 57 W/m2
08:00 37.6 °F 37.3 °F 30.10 in NE 2 mph 3 mph 99% 0.00 in 63 W/m2
08:10 37.8 °F 37.5 °F 30.10 in Calm   3 mph 99% 0.00 in 58 W/m2
08:20 37.9 °F 37.7 °F 30.10 in Calm   3 mph 99% 0.00 in 67 W/m2
08:30 38.1 °F 37.9 °F 30.09 in NW 1 mph 4 mph 99% 0.00 in 78 W/m2
08:40 38.1 °F 37.9 °F 30.09 in NNW 1 mph 2 mph 99% 0.00 in 93 W/m2
08:50 38.5 °F 38.2 °F 30.09 in NNE 1 mph 3 mph 99% 0.00 in 140 W/m2
09:00 38.7 °F 38.4 °F 30.09 in North 1 mph 2 mph 99% 0.00 in 125 W/m2
09:10 38.8 °F 38.6 °F 30.09 in Calm   3 mph 99% 0.00 in 137 W/m2
09:20 39.2 °F 38.9 °F 30.08 in NNE 3 mph 5 mph 99% 0.00 in 117 W/m2
09:30 39.4 °F 39.1 °F 30.08 in NE 2 mph 5 mph 99% 0.00 in 153 W/m2
09:40 39.6 °F 39.3 °F 30.08 in North 1 mph 3 mph 99% 0.00 in 150 W/m2
09:50 39.7 °F 39.5 °F 30.08 in NNE 1 mph 4 mph 99% 0.00 in 158 W/m2
10:00 39.9 °F 39.7 °F 30.08 in North 1 mph 5 mph 99% 0.00 in 177 W/m2
10:10 40.3 °F 40 °F 30.08 in NNE 1 mph 3 mph 99% 0.00 in 179 W/m2
10:20 40.6 °F 40.3 °F 30.08 in NNE 2 mph 4 mph 99% 0.00 in 209 W/m2
10:30 40.6 °F 40.4 °F 30.07 in ENE 1 mph 4 mph 99% 0.00 in 210 W/m2
10:40 41.2 °F 40.9 °F 30.07 in NNE 2 mph 5 mph 99% 0.00 in 264 W/m2
10:50 41.9 °F 41.6 °F 30.07 in North 1 mph 4 mph 99% 0.00 in 285 W/m2
11:00 42.6 °F 42.3 °F 30.06 in NW 1 mph 4 mph 99% 0.00 in 256 W/m2
11:10 43.2 °F 42.9 °F 30.06 in North 1 mph 5 mph 99% 0.00 in 309 W/m2
11:20 44.1 °F 43.8 °F 30.06 in North 2 mph 4 mph 99% 0.00 in 332 W/m2
11:30 45.5 °F 44.4 °F 30.05 in North 1 mph 4 mph 96% 0.00 in 194 W/m2
11:40 46.9 °F 45.5 °F 30.05 in North 1 mph 5 mph 95% 0.00 in 484 W/m2
11:50 48.2 °F 46.3 °F 30.04 in NE 1 mph 5 mph 93% 0.00 in 479 W/m2
Knjazevac, Serbia
Compliments of Weather Underground - 2 mb